createdAt,value
2022-11-16T00:01:30.541Z,56.44
2022-11-16T00:03:59.769Z,56.48
2022-11-16T00:06:27.888Z,56.30
2022-11-16T00:09:19.651Z,56.40
2022-11-16T00:11:52.721Z,56.41
2022-11-16T00:14:21.246Z,56.70
2022-11-16T00:16:48.259Z,56.32
2022-11-16T00:19:15.187Z,56.23
2022-11-16T00:21:42.385Z,56.43
2022-11-16T00:24:16.035Z,56.23
2022-11-16T00:26:43.257Z,56.17
2022-11-16T00:29:15.745Z,56.21
2022-11-16T00:31:44.552Z,56.33
2022-11-16T00:34:11.419Z,56.33
2022-11-16T00:36:38.281Z,56.38
2022-11-16T00:39:05.391Z,56.30
2022-11-16T00:41:32.169Z,56.23
2022-11-16T00:43:58.979Z,56.32
2022-11-16T00:46:25.772Z,56.44
2022-11-16T00:48:52.586Z,56.50
2022-11-16T00:51:25.442Z,56.10
2022-11-16T00:53:52.215Z,56.26
2022-11-16T00:56:19.015Z,56.13
2022-11-16T00:58:45.825Z,56.38
2022-11-16T01:01:13.049Z,56.57
2022-11-16T01:03:40.104Z,56.49
2022-11-16T01:06:10.717Z,56.32
2022-11-16T01:08:39.436Z,56.38
2022-11-16T01:11:26.815Z,56.45
2022-11-16T01:13:54.669Z,56.61
2022-11-16T01:16:23.643Z,56.45
2022-11-16T01:18:53.616Z,56.64
2022-11-16T01:21:21.844Z,56.46
2022-11-16T01:23:48.810Z,56.54
2022-11-16T01:26:15.649Z,56.56
2022-11-16T01:28:42.420Z,56.57
2022-11-16T01:31:10.367Z,56.51
2022-11-16T01:33:38.005Z,56.42
2022-11-16T01:36:14.548Z,56.49
2022-11-16T01:38:46.318Z,56.50
2022-11-16T01:41:23.937Z,56.56
2022-11-16T01:43:59.874Z,56.86
2022-11-16T01:46:28.231Z,56.86
2022-11-16T01:49:04.527Z,56.77
2022-11-16T01:51:32.764Z,56.65
2022-11-16T01:54:01.845Z,56.73
2022-11-16T01:56:31.683Z,56.75
2022-11-16T01:58:58.653Z,56.77
2022-11-16T02:01:25.490Z,56.78
2022-11-16T02:03:52.313Z,56.88
2022-11-16T02:06:32.414Z,56.95
2022-11-16T02:09:59.381Z,56.99
2022-11-16T02:12:49.001Z,57.07
2022-11-16T02:15:30.201Z,56.91
2022-11-16T02:18:44.097Z,57.12
2022-11-16T02:21:36.293Z,57.24
2022-11-16T02:24:42.547Z,57.18
2022-11-16T02:28:11.432Z,57.34
2022-11-16T02:30:44.789Z,57.64
2022-11-16T02:33:21.192Z,57.25
2022-11-16T02:35:52.676Z,57.29
2022-11-16T02:38:31.993Z,57.16
2022-11-16T02:41:06.485Z,57.38
2022-11-16T02:43:42.856Z,57.18
2022-11-16T02:46:18.851Z,57.17
2022-11-16T02:48:50.527Z,57.08
2022-11-16T02:51:19.482Z,57.16
2022-11-16T02:54:12.738Z,57.38
2022-11-16T02:57:04.726Z,57.33
2022-11-16T02:59:49.013Z,57.44
2022-11-16T03:02:25.497Z,57.23
2022-11-16T03:05:31.821Z,57.44
2022-11-16T03:08:33.996Z,57.35
2022-11-16T03:11:25.377Z,57.43
2022-11-16T03:14:00.015Z,57.47
2022-11-16T03:16:32.502Z,57.36
2022-11-16T03:19:03.241Z,57.46
2022-11-16T03:21:50.588Z,57.57
2022-11-16T03:24:17.620Z,57.60
2022-11-16T03:27:18.314Z,57.81
2022-11-16T03:30:06.042Z,57.79
2022-11-16T03:32:55.081Z,58.00
2022-11-16T03:35:24.806Z,58.11
2022-11-16T03:37:55.478Z,57.99
2022-11-16T03:40:24.627Z,58.11
2022-11-16T03:42:52.167Z,58.20
2022-11-16T03:45:19.966Z,58.38
2022-11-16T03:47:46.862Z,58.46
2022-11-16T03:50:13.751Z,58.60
2022-11-16T03:52:41.289Z,58.60
2022-11-16T03:55:08.608Z,58.68
2022-11-16T03:57:35.359Z,58.76
2022-11-16T04:00:02.467Z,58.84
2022-11-16T04:02:29.256Z,58.89
2022-11-16T04:05:14.420Z,58.87
2022-11-16T04:07:59.729Z,58.95
2022-11-16T04:10:44.787Z,59.20
2022-11-16T04:13:32.277Z,59.25
2022-11-16T04:16:17.904Z,59.42
2022-11-16T04:19:03.075Z,59.61
2022-11-16T04:22:02.779Z,59.39
2022-11-16T04:24:35.949Z,59.64
2022-11-16T04:27:25.888Z,59.68
2022-11-16T04:29:54.220Z,59.91
2022-11-16T04:32:39.359Z,59.76
2022-11-16T04:35:24.565Z,59.84
2022-11-16T04:37:53.240Z,59.95
2022-11-16T04:40:26.352Z,59.93
2022-11-16T04:43:01.303Z,60.11
2022-11-16T04:45:47.025Z,60.37
2022-11-16T04:48:15.914Z,60.22
2022-11-16T04:50:43.657Z,60.15
2022-11-16T04:53:10.877Z,60.38
2022-11-16T04:55:37.824Z,60.32
2022-11-16T04:58:05.381Z,60.43
2022-11-16T05:00:32.733Z,60.37
2022-11-16T05:03:01.588Z,60.41
2022-11-16T05:05:28.792Z,60.39
2022-11-16T05:07:55.613Z,60.57
2022-11-16T05:10:22.500Z,60.50
2022-11-16T05:12:49.240Z,61.15
2022-11-16T05:15:17.607Z,60.93
2022-11-16T05:17:44.450Z,60.84
2022-11-16T05:20:30.214Z,61.05
2022-11-16T05:22:58.260Z,61.27
2022-11-16T05:25:25.487Z,61.15
2022-11-16T05:27:52.270Z,61.30
2022-11-16T05:30:19.124Z,61.40
2022-11-16T05:32:46.157Z,61.43
2022-11-16T05:35:12.914Z,61.46
2022-11-16T05:37:39.745Z,61.50
2022-11-16T05:40:07.469Z,61.72
2022-11-16T05:42:34.431Z,61.66
2022-11-16T05:45:01.268Z,61.58
2022-11-16T05:47:28.177Z,61.60
2022-11-16T05:49:54.938Z,61.82
2022-11-16T05:52:21.709Z,61.74
2022-11-16T05:54:48.477Z,61.89
2022-11-16T05:57:15.367Z,61.91
2022-11-16T05:59:42.529Z,62.01
2022-11-16T06:02:09.288Z,62.13
2022-11-16T06:04:36.044Z,61.95
2022-11-16T06:07:02.915Z,62.27
2022-11-16T06:09:29.772Z,62.32
2022-11-16T06:11:56.552Z,62.17
2022-11-16T06:14:23.515Z,62.15
2022-11-16T06:16:50.277Z,62.16
2022-11-16T06:19:17.037Z,62.43
2022-11-16T06:21:43.801Z,62.37
2022-11-16T06:24:10.611Z,62.39
2022-11-16T06:26:37.452Z,62.42
2022-11-16T06:29:04.797Z,62.54
2022-11-16T06:31:31.682Z,62.37
2022-11-16T06:33:58.515Z,62.37
2022-11-16T06:36:25.309Z,62.56
2022-11-16T06:38:52.139Z,62.63
2022-11-16T06:41:19.348Z,62.59
2022-11-16T06:43:46.294Z,62.66
2022-11-16T06:46:13.269Z,62.60
2022-11-16T06:48:40.080Z,62.93
2022-11-16T06:51:06.923Z,62.68
2022-11-16T06:53:34.185Z,62.82
2022-11-16T06:56:05.644Z,62.74
2022-11-16T06:58:33.380Z,62.95
2022-11-16T07:01:11.845Z,62.86
2022-11-16T07:03:39.104Z,63.02
2022-11-16T07:06:11.119Z,62.94
2022-11-16T07:08:38.548Z,62.96
2022-11-16T07:11:07.550Z,62.76
2022-11-16T07:13:36.243Z,63.05
2022-11-16T07:16:08.579Z,63.13
2022-11-16T07:18:37.643Z,63.11
2022-11-16T07:21:08.659Z,63.20
2022-11-16T07:23:36.520Z,63.07
2022-11-16T07:26:05.809Z,63.41
2022-11-16T07:28:33.589Z,63.08
2022-11-16T07:31:06.422Z,63.14
2022-11-16T07:33:34.024Z,63.02
2022-11-16T07:36:10.403Z,63.13
2022-11-16T07:38:37.398Z,63.30
2022-11-16T07:41:11.232Z,63.15
2022-11-16T07:43:38.075Z,63.31
2022-11-16T07:46:45.959Z,63.30
2022-11-16T07:49:00.407Z,63.44
2022-11-16T07:51:27.264Z,63.06
2022-11-16T07:53:55.902Z,63.31
2022-11-16T07:56:22.985Z,63.41
2022-11-16T07:58:49.767Z,63.31
2022-11-16T08:01:18.578Z,63.32
2022-11-16T08:03:46.313Z,63.38
2022-11-16T08:06:26.751Z,62.99
2022-11-16T08:08:57.975Z,63.22
2022-11-16T08:11:26.135Z,63.29
2022-11-16T08:13:53.038Z,63.37
2022-11-16T08:16:22.298Z,63.24
2022-11-16T08:18:49.193Z,63.07
2022-11-16T08:21:17.873Z,63.30
2022-11-16T08:23:45.254Z,63.20
2022-11-16T08:26:18.775Z,63.10
2022-11-16T08:28:48.056Z,63.37
2022-11-16T08:31:21.530Z,63.45
2022-11-16T08:33:48.304Z,63.42
2022-11-16T08:36:17.643Z,63.55
2022-11-16T08:38:49.734Z,63.49
2022-11-16T08:41:17.855Z,63.34
2022-11-16T08:43:46.989Z,63.28
2022-11-16T08:46:14.085Z,63.52
2022-11-16T08:48:41.263Z,63.44
2022-11-16T08:51:20.590Z,63.56
2022-11-16T08:53:49.308Z,63.60
2022-11-16T08:56:18.402Z,63.35
2022-11-16T08:58:51.374Z,63.57
2022-11-16T09:01:23.981Z,63.30
2022-11-16T09:03:52.185Z,63.42
2022-11-16T09:06:19.216Z,63.40
2022-11-16T09:08:46.891Z,63.56
2022-11-16T09:11:18.316Z,63.51
2022-11-16T09:13:47.834Z,63.42
2022-11-16T09:16:16.564Z,63.58
2022-11-16T09:18:45.548Z,63.55
2022-11-16T09:21:16.116Z,63.40
2022-11-16T09:23:42.862Z,63.38
2022-11-16T09:26:09.659Z,63.57
2022-11-16T09:28:36.749Z,63.48
2022-11-16T09:31:05.889Z,63.54
2022-11-16T09:33:34.307Z,63.70
2022-11-16T09:36:07.841Z,63.54
2022-11-16T09:42:15.728Z,63.58
2022-11-16T09:45:04.554Z,63.47
2022-11-16T09:47:40.840Z,63.92
2022-11-16T09:50:39.289Z,63.86
2022-11-16T09:53:53.028Z,63.69
2022-11-16T09:56:23.968Z,63.97
2022-11-16T09:59:02.873Z,63.88
2022-11-16T10:01:48.803Z,63.78
2022-11-16T10:04:29.133Z,63.59
2022-11-16T10:07:22.650Z,63.97
2022-11-16T10:09:49.863Z,63.98
2022-11-16T10:12:35.524Z,63.74
2022-11-16T10:15:06.611Z,63.86
2022-11-16T10:18:02.422Z,63.80
2022-11-16T10:21:12.883Z,63.76
2022-11-16T10:23:57.532Z,64.07
2022-11-16T10:26:37.935Z,63.99
2022-11-16T10:29:35.112Z,63.88
2022-11-16T10:32:29.721Z,64.29
2022-11-16T10:35:09.091Z,64.24
2022-11-16T10:37:41.360Z,63.99
2022-11-16T10:40:23.145Z,64.17
2022-11-16T10:43:00.382Z,64.08
2022-11-16T10:45:45.992Z,64.21
2022-11-16T10:48:58.413Z,64.31
2022-11-16T10:51:25.209Z,64.38
2022-11-16T10:53:53.090Z,64.34
2022-11-16T10:56:28.751Z,64.46
2022-11-16T10:59:02.172Z,64.19
2022-11-16T11:01:37.658Z,64.39
2022-11-16T11:04:18.564Z,64.45
2022-11-16T11:06:48.887Z,64.48
2022-11-16T11:09:28.738Z,64.51
2022-11-16T11:12:22.629Z,64.27
2022-11-16T11:15:26.335Z,64.51
2022-11-16T11:18:15.498Z,64.43
2022-11-16T11:20:46.900Z,64.45
2022-11-16T11:23:22.134Z,64.36
2022-11-16T11:25:57.787Z,64.66
2022-11-16T11:28:31.661Z,64.44
2022-11-16T11:31:25.953Z,64.18
2022-11-16T11:33:57.713Z,64.54
2022-11-16T11:36:34.088Z,64.36
2022-11-16T11:39:21.101Z,64.38
2022-11-16T11:42:19.627Z,64.53
2022-11-16T11:44:57.520Z,64.71
2022-11-16T11:48:05.104Z,64.61
2022-11-16T11:50:44.785Z,64.75
2022-11-16T11:53:38.948Z,64.57
2022-11-16T11:56:06.633Z,64.71
2022-11-16T11:58:37.342Z,65.11
2022-11-16T12:01:25.639Z,64.89
2022-11-16T12:04:22.145Z,64.95
2022-11-16T12:07:03.617Z,64.71
2022-11-16T12:09:53.199Z,64.98
2022-11-16T12:12:56.701Z,64.80
2022-11-16T12:15:35.731Z,64.98
2022-11-16T12:18:14.157Z,65.11
2022-11-16T12:21:00.102Z,64.96
2022-11-16T12:24:03.919Z,65.11
2022-11-16T12:27:00.439Z,65.16
2022-11-16T12:29:40.438Z,65.26
2022-11-16T12:33:02.057Z,65.47
2022-11-16T12:36:36.387Z,65.38
2022-11-16T12:39:28.908Z,65.48
2022-11-16T12:42:34.741Z,65.55
2022-11-16T12:45:34.037Z,65.30
2022-11-16T12:48:31.995Z,65.65
2022-11-16T12:51:11.600Z,65.39
2022-11-16T12:54:06.161Z,65.59
2022-11-16T12:56:48.667Z,65.75
2022-11-16T12:59:49.045Z,65.63
2022-11-16T13:03:16.763Z,65.82
2022-11-16T13:05:53.770Z,65.89
2022-11-16T13:08:49.206Z,66.06
2022-11-16T13:11:21.907Z,66.16
2022-11-16T13:13:56.062Z,66.10
2022-11-16T13:16:24.700Z,65.99
2022-11-16T13:18:53.919Z,66.36
2022-11-16T13:21:47.904Z,65.96
2022-11-16T13:24:54.619Z,65.96
2022-11-16T13:27:49.871Z,66.24
2022-11-16T13:30:26.013Z,66.24
2022-11-16T13:33:13.809Z,66.18
2022-11-16T13:35:40.560Z,66.57
2022-11-16T13:38:13.724Z,66.59
2022-11-16T13:40:41.256Z,66.59
2022-11-16T13:43:10.934Z,66.55
2022-11-16T13:45:49.520Z,66.50
2022-11-16T13:48:21.557Z,66.78
2022-11-16T13:50:56.039Z,66.40
2022-11-16T13:56:15.937Z,66.41
2022-11-16T13:59:00.929Z,66.42
2022-11-16T14:02:28.376Z,66.51
2022-11-16T14:05:01.974Z,66.68
2022-11-16T14:07:46.371Z,66.64
2022-11-16T14:10:33.262Z,66.66
2022-11-16T14:13:05.128Z,66.78
2022-11-16T14:15:34.032Z,67.00
2022-11-16T14:18:32.117Z,67.05
2022-11-16T14:21:08.442Z,67.03
2022-11-16T14:24:02.851Z,67.04
2022-11-16T14:27:09.963Z,67.10
2022-11-16T14:30:09.932Z,66.94
2022-11-16T14:32:45.961Z,66.91
2022-11-16T14:35:40.257Z,67.00
2022-11-16T14:38:21.927Z,67.38
2022-11-16T14:40:57.783Z,67.27
2022-11-16T14:43:54.869Z,67.06
2022-11-16T14:46:35.656Z,67.08
2022-11-16T14:49:03.032Z,67.18
2022-11-16T14:51:34.964Z,67.24
2022-11-16T14:54:39.112Z,67.01
2022-11-16T14:57:13.628Z,67.24
2022-11-16T14:59:40.378Z,67.52
2022-11-16T15:02:27.160Z,66.96
2022-11-16T15:04:54.664Z,67.43
2022-11-16T15:07:26.248Z,67.15
2022-11-16T15:09:56.585Z,67.31
2022-11-16T15:12:42.245Z,67.15
2022-11-16T15:15:11.762Z,67.25
2022-11-16T15:17:42.162Z,67.44
2022-11-16T15:20:22.105Z,67.57
2022-11-16T15:22:55.329Z,67.49
2022-11-16T15:25:30.499Z,67.47
2022-11-16T15:28:20.026Z,67.47
2022-11-16T15:30:51.054Z,66.89
2022-11-16T15:33:33.571Z,67.40
2022-11-16T15:36:00.650Z,67.47
2022-11-16T15:38:32.769Z,67.48
2022-11-16T15:41:04.841Z,67.38
2022-11-16T15:43:45.211Z,67.26
2022-11-16T15:46:17.760Z,67.42
2022-11-16T15:48:45.534Z,67.45
2022-11-16T15:51:24.260Z,67.57
2022-11-16T15:53:54.361Z,67.54
2022-11-16T15:56:27.082Z,67.53
2022-11-16T15:59:02.466Z,67.42
2022-11-16T16:01:30.424Z,67.67
2022-11-16T16:04:05.017Z,67.48
2022-11-16T16:06:53.228Z,67.60
2022-11-16T16:09:39.680Z,67.75
2022-11-16T16:12:23.604Z,67.73
2022-11-16T16:14:52.375Z,67.82
2022-11-16T16:17:30.565Z,67.80
2022-11-16T16:20:04.047Z,67.75
2022-11-16T16:22:34.527Z,67.54
2022-11-16T16:25:01.962Z,67.61
2022-11-16T16:27:31.620Z,67.64
2022-11-16T16:30:05.352Z,67.51
2022-11-16T16:32:37.722Z,67.56
2022-11-16T16:35:08.424Z,67.91
2022-11-16T16:37:35.988Z,67.72
2022-11-16T16:40:03.480Z,67.65
2022-11-16T16:42:30.287Z,67.86
2022-11-16T16:44:59.929Z,67.94
2022-11-16T16:47:26.706Z,67.82
2022-11-16T16:49:53.604Z,67.83
2022-11-16T16:52:20.405Z,67.88
2022-11-16T16:54:47.207Z,67.62
2022-11-16T16:57:15.774Z,67.88
2022-11-16T16:59:45.287Z,67.77
2022-11-16T17:02:14.896Z,67.72
2022-11-16T17:04:43.870Z,67.80
2022-11-16T17:07:10.766Z,67.81
2022-11-16T17:09:37.543Z,67.57
2022-11-16T17:12:04.554Z,67.62
2022-11-16T17:14:31.327Z,67.76
2022-11-16T17:16:58.136Z,67.67
2022-11-16T17:19:25.039Z,67.59
2022-11-16T17:21:52.340Z,67.63
2022-11-16T17:24:19.303Z,67.74
2022-11-16T17:26:48.583Z,67.61
2022-11-16T17:29:15.474Z,67.79
2022-11-16T17:31:44.070Z,67.55
2022-11-16T17:34:13.699Z,67.71
2022-11-16T17:36:41.938Z,67.70
2022-11-16T17:39:09.000Z,67.94
2022-11-16T17:41:35.906Z,67.40
2022-11-16T17:44:03.701Z,67.77
2022-11-16T17:46:30.473Z,67.68
2022-11-16T17:48:57.310Z,67.68
2022-11-16T17:51:25.227Z,67.66
2022-11-16T17:53:52.510Z,67.68
2022-11-16T17:56:23.200Z,67.56
2022-11-16T17:58:51.530Z,67.51
2022-11-16T18:01:19.198Z,67.64
2022-11-16T18:03:46.076Z,67.46
2022-11-16T18:06:19.463Z,67.56
2022-11-16T18:08:46.693Z,67.53
2022-11-16T18:11:19.917Z,67.35
2022-11-16T18:13:47.635Z,67.67
2022-11-16T18:16:17.783Z,67.62
2022-11-16T18:18:46.721Z,67.73
2022-11-16T18:21:20.466Z,67.49
2022-11-16T18:23:47.911Z,67.65
2022-11-16T18:26:17.668Z,67.82
2022-11-16T18:28:48.667Z,67.83
2022-11-16T18:31:18.114Z,67.61
2022-11-16T18:33:45.307Z,67.79
2022-11-16T18:36:12.872Z,67.84
2022-11-16T18:38:39.697Z,67.62
2022-11-16T18:41:16.616Z,67.64
2022-11-16T18:43:59.675Z,67.67
2022-11-16T18:46:29.398Z,67.88
2022-11-16T18:48:57.088Z,67.62
2022-11-16T18:51:26.950Z,67.62
2022-11-16T18:53:54.112Z,67.82
2022-11-16T18:56:21.095Z,67.78
2022-11-16T18:58:51.000Z,67.89
2022-11-16T19:01:25.506Z,67.54
2022-11-16T19:03:54.649Z,67.90
2022-11-16T19:06:23.025Z,67.90
2022-11-16T19:09:06.187Z,67.61
2022-11-16T19:11:32.967Z,67.74
2022-11-16T19:14:07.582Z,67.80
2022-11-16T19:16:34.589Z,67.73
2022-11-16T19:19:01.502Z,67.61
2022-11-16T19:21:28.624Z,67.64
2022-11-16T19:23:57.021Z,67.66
2022-11-16T19:26:27.121Z,67.61
2022-11-16T19:28:54.611Z,67.36
2022-11-16T19:31:28.735Z,67.51
2022-11-16T19:34:15.837Z,67.56
2022-11-16T19:36:42.581Z,67.44
2022-11-16T19:39:09.390Z,67.50
2022-11-16T19:41:36.213Z,67.63
2022-11-16T19:44:03.142Z,67.28
2022-11-16T19:46:33.026Z,67.04
2022-11-16T19:49:00.312Z,67.09
2022-11-16T19:51:33.301Z,67.25
2022-11-16T19:54:01.413Z,67.13
2022-11-16T19:56:29.107Z,67.13
2022-11-16T19:58:55.879Z,67.10
2022-11-16T20:01:27.699Z,67.09
2022-11-16T20:03:57.563Z,67.02
2022-11-16T20:06:28.990Z,66.94
2022-11-16T20:09:00.389Z,67.06
2022-11-16T20:11:33.983Z,67.20
2022-11-16T20:14:02.328Z,67.18
2022-11-16T20:16:38.439Z,66.72
2022-11-16T20:19:08.461Z,66.99
2022-11-16T20:21:41.213Z,66.97
2022-11-16T20:24:14.651Z,66.96
2022-11-16T20:26:45.033Z,66.77
2022-11-16T20:29:13.774Z,67.05
2022-11-16T20:31:42.756Z,66.79
2022-11-16T20:34:14.109Z,66.94
2022-11-16T20:36:43.684Z,66.76
2022-11-16T20:39:17.110Z,66.67
2022-11-16T20:41:44.358Z,66.94
2022-11-16T20:44:19.408Z,66.81
2022-11-16T20:46:46.208Z,66.58
2022-11-16T20:49:13.089Z,66.31
2022-11-16T20:51:40.388Z,66.46
2022-11-16T20:54:07.313Z,66.54
2022-11-16T20:56:34.308Z,66.43
2022-11-16T20:59:01.958Z,66.52
2022-11-16T21:01:31.379Z,66.31
2022-11-16T21:04:01.547Z,66.14
2022-11-16T21:06:28.666Z,66.18
2022-11-16T21:08:56.208Z,66.22
2022-11-16T21:11:30.384Z,66.31
2022-11-16T21:14:16.100Z,66.45
2022-11-16T21:16:43.388Z,66.46
2022-11-16T21:19:11.032Z,66.50
2022-11-16T21:21:40.331Z,66.24
2022-11-16T21:24:08.981Z,66.33
2022-11-16T21:26:37.143Z,66.17
2022-11-16T21:29:04.552Z,66.13
2022-11-16T21:31:36.390Z,66.32
2022-11-16T21:34:03.637Z,66.09
2022-11-16T21:36:32.104Z,66.29
2022-11-16T21:38:59.657Z,66.12
2022-11-16T21:41:26.893Z,66.03
2022-11-16T21:43:53.926Z,66.20
2022-11-16T21:46:26.100Z,65.85
2022-11-16T21:48:55.361Z,65.91
2022-11-16T21:51:25.190Z,66.00
2022-11-16T21:53:52.536Z,66.02
2022-11-16T21:56:22.782Z,66.04
2022-11-16T21:58:52.578Z,66.14
2022-11-16T22:01:20.222Z,65.67
2022-11-16T22:03:48.361Z,65.96
2022-11-16T22:06:35.206Z,66.03
2022-11-16T22:09:02.517Z,65.76
2022-11-16T22:11:29.311Z,65.74
2022-11-16T22:13:56.086Z,65.78
2022-11-16T22:16:23.358Z,65.67
2022-11-16T22:18:50.451Z,65.75
2022-11-16T22:21:17.413Z,66.10
2022-11-16T22:23:44.233Z,65.69
2022-11-16T22:26:13.020Z,65.91
2022-11-16T22:28:40.306Z,65.78
2022-11-16T22:31:13.237Z,65.91
2022-11-16T22:33:40.633Z,65.72
2022-11-16T22:36:09.474Z,65.93
2022-11-16T22:38:36.624Z,65.69
2022-11-16T22:41:03.599Z,65.48
2022-11-16T22:43:31.786Z,65.93
2022-11-16T22:46:05.069Z,65.44
2022-11-16T22:48:38.356Z,65.65
2022-11-16T22:51:17.952Z,65.69
2022-11-16T22:53:44.749Z,65.73
2022-11-16T22:56:11.700Z,65.84
2022-11-16T22:58:39.124Z,65.67
2022-11-16T23:01:08.220Z,65.38
2022-11-16T23:03:36.154Z,65.37
2022-11-16T23:06:04.179Z,65.34
2022-11-16T23:08:31.693Z,65.53
2022-11-16T23:11:28.661Z,65.68
2022-11-16T23:14:14.257Z,65.48
2022-11-16T23:16:42.215Z,65.60
2022-11-16T23:19:29.897Z,65.56
2022-11-16T23:22:16.027Z,65.36
2022-11-16T23:25:02.213Z,65.41
2022-11-16T23:27:56.984Z,65.54
2022-11-16T23:30:24.410Z,65.56
2022-11-16T23:32:51.645Z,65.54
2022-11-16T23:35:18.804Z,65.46
2022-11-16T23:38:04.176Z,65.48
2022-11-16T23:40:36.056Z,65.47
2022-11-16T23:43:39.031Z,65.25
2022-11-16T23:46:05.901Z,65.31
2022-11-16T23:48:32.663Z,65.42
2022-11-16T23:50:59.421Z,65.26
2022-11-16T23:53:26.199Z,65.25
2022-11-16T23:55:52.971Z,65.40
2022-11-16T23:58:19.768Z,65.12
